Brooks AFB, Texas
Current Conditions -  °F | °C
As of 12:53 AM on Friday 31 Oct 2014 (Local Time) from KSSF Reporting Station
Clear Clear  
Wind Chill: 68°   Ceiling: Unl
Heat Index: 68°   Visibility: 10mi
Dew Point: 62°   Wind: 0mph
Humidity: 81%   Direction: NA
Pressure: 30.08"   Gusts: NA
Location:  29.3423°N, 98.4394°W
Report Text: KSSF 310553Z AUTO 00000KT 10SM CLR 20/17 A3008 RMK AO2 SLP177 T02000167 10267 20200 403000189 50005
Loading
Personal Weather Stations






























Interactive Weather Map
Tropical Storm Tracking
New forecast layout! Learn more

10-Day Weather Forecast

Advertisements
Track Severe Weather on mobile